Monday, February 19, 2018, 9:55 AM GMT
Back to Local

CWRK, Bancroft Automatic Weather Reporting System

Location: , , Canada Lat: 45.067
Local Time: 9:55 AM GMT ( 9:55 GMT) Lon: -77.867
Time Zone: GMT Elev: 1085 ft

Show me the last for .
Show Coded

Time T Td Feel RH Dir Speed Gust Alt SLP Vis Weather Sky Remarks
2018-02-19 09:00 19 16 - 87 - Calm - - 30.19 0 None
2018-02-19 08:00 28 19 - 71 180° 2 - - 30.19 0 None
2018-02-19 07:00 26 22 - 84 170° 2 - - 30.22 0 None
2018-02-19 06:00 27 21 22 77 180° 5 - - 30.24 0 None
2018-02-19 05:00 27 21 23 77 180° 3 - - 30.24 0 None
2018-02-19 04:00 28 22 - 76 200° 2 - - 30.27 0 None
2018-02-19 03:00 28 21 23 74 190° 5 - - 30.28 0 None
2018-02-19 02:00 27 19 23 69 190° 3 - - 30.32 0 None
2018-02-19 01:00 25 17 - 72 190° 2 - - 30.33 0 None
2018-02-19 00:00 28 17 24 62 190° 3 - - 30.33 0 None
2018-02-18 23:00 29 17 25 59 210° 3 - - 30.33 0 None
2018-02-18 22:00 32 19 27 56 220° 5 - - 30.33 0 None
2018-02-18 21:00 34 14 30 43 230° 5 - - 30.29 0 None
2018-02-18 20:00 34 14 29 43 240° 6 - - 30.27 0 None
2018-02-18 19:00 36 15 30 41 230° 7 - - 30.25 0 None
2018-02-18 18:00 33 15 29 48 270° 5 - - 30.25 0 None
2018-02-18 17:00 33 16 28 48 250° 6 - - 30.25 0 None
2018-02-18 16:00 31 18 26 58 270° 5 - - 30.25 0 None
2018-02-18 15:00 31 20 26 63 240° 5 - - 30.24 0 None
2018-02-18 14:00 29 22 - 73 230° 2 - - 30.21 0 None
2018-02-18 13:00 26 22 - 82 270° 1 - - 30.17 0 None
2018-02-18 12:00 26 22 - 84 240° 2 - - 30.11 0 None
2018-02-18 11:00 25 21 - 85 250° 1 - - 30.07 0 None
2018-02-18 10:00 22 20 - 89 220° 2 - - 30.02 0 None

Support USWX by starting your Amazon purchase here.